Hundvaag 1 weather for Aug 2001
Month no. 170
Obs.
Da.
Temp. Dew Point Precip. Wind
Speed
Wind gusts Cloud cover Press. Humidity Wind dir. Sunny OPT
01.08.2001 13,5   0,2     3 1016,1     1  
02.08.2001 13,8   0,2     0 1016,0        
03.08.2001 15,6   6,5     0 1009,6        
04.08.2001 16,2   4,8     2 1009,9        
05.08.2001 11,7   0,5     7 1009,7     1  
06.08.2001 11,4   0,7     3 1009,9     1  
07.08.2001 12,6   0,0     9 1008,3     1  
08.08.2001 11,0   0,0     7 1006,7     1  
09.08.2001 13,9   16,2     0 1002,5        
10.08.2001 12,5   0,0     0 1010,9        
11.08.2001 15,4   7,1     4 1014,3     1  
12.08.2001 14,9   15,2     0 1009,2        
13.08.2001 12,7   0,6     0 1006,8        
14.08.2001 15,7   1,1     0 1008,0     1  
15.08.2001 17,9   0,0     0 1012,0     1  
16.08.2001 20,2   0,0     3 1008,4     1  
17.08.2001 13,0   3,8     2 1009,9        
18.08.2001 13,8   0,6     2 1015,1     1  
19.08.2001 14,5   0,0     5 1011,9     1  
20.08.2001 16,8   4,5     0 1006,5     1  
21.08.2001 10,9   4,8     9 1015,9     1  
22.08.2001 14,4   0,0     0 1017,2        
23.08.2001 14,5   0,0     6 1019,1     1  
24.08.2001 17,0   0,3     0 1016,3        
25.08.2001 18,2   0,3     0 1012,9        
26.08.2001 16,0   1,0     0 1012,0        
27.08.2001 12,0   1,8     5 1012,8     1  
28.08.2001 11,7   5,0     5 1013,9     1  
29.08.2001 8,4   0,0     9 1014,5     1  
30.08.2001 11,8   0,0     0 1014,0        
31.08.2001 14,0   2,7     0 1011,5     1  
Avrg/Sum 14,1   77,9     2,6 1011,7     18